sensor_id;sensor_type;location;lat;lon;timestamp;temperature;humidity
23411;DHT22;11878;51.774;7.220;2023-02-17T00:02:57;9.70;99.90
23411;DHT22;11878;51.774;7.220;2023-02-17T00:16:30;9.70;99.90
23411;DHT22;11878;51.774;7.220;2023-02-17T00:19:32;9.70;99.90
23411;DHT22;11878;51.774;7.220;2023-02-17T00:29:42;9.70;99.90
23411;DHT22;11878;51.774;7.220;2023-02-17T00:32:44;9.70;99.90
23411;DHT22;11878;51.774;7.220;2023-02-17T00:35:46;9.70;99.90
23411;DHT22;11878;51.774;7.220;2023-02-17T00:42:19;9.70;99.90
23411;DHT22;11878;51.774;7.220;2023-02-17T00:45:21;9.70;99.90
23411;DHT22;11878;51.774;7.220;2023-02-17T00:48:23;9.70;99.90
23411;DHT22;11878;51.774;7.220;2023-02-17T00:51:24;9.70;99.90
23411;DHT22;11878;51.774;7.220;2023-02-17T00:54:27;9.70;99.90
23411;DHT22;11878;51.774;7.220;2023-02-17T00:57:29;9.70;99.90
23411;DHT22;11878;51.774;7.220;2023-02-17T01:00:32;9.70;99.90
23411;DHT22;11878;51.774;7.220;2023-02-17T01:03:34;9.70;99.90
23411;DHT22;11878;51.774;7.220;2023-02-17T01:06:37;9.70;99.90
23411;DHT22;11878;51.774;7.220;2023-02-17T01:09:40;9.70;99.90
23411;DHT22;11878;51.774;7.220;2023-02-17T01:12:42;9.70;99.90
23411;DHT22;11878;51.774;7.220;2023-02-17T01:15:49;9.70;99.90
23411;DHT22;11878;51.774;7.220;2023-02-17T01:25:53;9.70;99.90
23411;DHT22;11878;51.774;7.220;2023-02-17T01:28:56;9.70;99.90
23411;DHT22;11878;51.774;7.220;2023-02-17T01:31:57;9.70;99.90
23411;DHT22;11878;51.774;7.220;2023-02-17T01:38:38;9.70;99.90
23411;DHT22;11878;51.774;7.220;2023-02-17T01:41:40;9.70;99.90
23411;DHT22;11878;51.774;7.220;2023-02-17T01:48:24;9.70;99.90
23411;DHT22;11878;51.774;7.220;2023-02-17T01:51:33;9.70;99.90
23411;DHT22;11878;51.774;7.220;2023-02-17T01:55:03;9.70;99.90
23411;DHT22;11878;51.774;7.220;2023-02-17T01:58:08;9.70;99.90
23411;DHT22;11878;51.774;7.220;2023-02-17T02:01:11;9.70;99.90
23411;DHT22;11878;51.774;7.220;2023-02-17T02:04:14;9.70;99.90
23411;DHT22;11878;51.774;7.220;2023-02-17T02:07:31;9.80;99.90
23411;DHT22;11878;51.774;7.220;2023-02-17T02:10:33;9.80;99.90
23411;DHT22;11878;51.774;7.220;2023-02-17T02:13:38;9.80;99.90
23411;DHT22;11878;51.774;7.220;2023-02-17T02:23:43;9.80;99.90
23411;DHT22;11878;51.774;7.220;2023-02-17T02:37:15;9.80;99.90
23411;DHT22;11878;51.774;7.220;2023-02-17T02:40:22;9.80;99.90
23411;DHT22;11878;51.774;7.220;2023-02-17T02:43:25;9.80;99.90
23411;DHT22;11878;51.774;7.220;2023-02-17T02:46:27;9.80;99.90
23411;DHT22;11878;51.774;7.220;2023-02-17T02:49:32;9.80;99.90
23411;DHT22;11878;51.774;7.220;2023-02-17T03:03:10;9.80;99.90
23411;DHT22;11878;51.774;7.220;2023-02-17T03:06:45;9.80;99.90
23411;DHT22;11878;51.774;7.220;2023-02-17T03:16:50;9.80;99.90
23411;DHT22;11878;51.774;7.220;2023-02-17T03:19:52;9.80;99.90
23411;DHT22;11878;51.774;7.220;2023-02-17T03:26:24;9.80;99.90
23411;DHT22;11878;51.774;7.220;2023-02-17T03:50:09;9.90;99.90
23411;DHT22;11878;51.774;7.220;2023-02-17T03:53:11;9.90;99.90
23411;DHT22;11878;51.774;7.220;2023-02-17T03:56:13;10.00;99.90
23411;DHT22;11878;51.774;7.220;2023-02-17T04:06:19;10.00;99.90
23411;DHT22;11878;51.774;7.220;2023-02-17T04:09:21;10.00;99.90
23411;DHT22;11878;51.774;7.220;2023-02-17T04:12:23;10.00;99.90
23411;DHT22;11878;51.774;7.220;2023-02-17T04:25:37;9.20;99.90
23411;DHT22;11878;51.774;7.220;2023-02-17T04:28:42;11.30;99.90
23411;DHT22;11878;51.774;7.220;2023-02-17T04:31:47;10.50;99.90
23411;DHT22;11878;51.774;7.220;2023-02-17T04:34:52;10.30;99.90
23411;DHT22;11878;51.774;7.220;2023-02-17T04:37:54;11.40;99.90
23411;DHT22;11878;51.774;7.220;2023-02-17T04:40:57;10.80;99.90
23411;DHT22;11878;51.774;7.220;2023-02-17T04:44:00;11.30;99.90
23411;DHT22;11878;51.774;7.220;2023-02-17T04:47:02;10.10;99.90
23411;DHT22;11878;51.774;7.220;2023-02-17T04:50:04;10.20;99.90
23411;DHT22;11878;51.774;7.220;2023-02-17T04:53:06;10.10;99.90
23411;DHT22;11878;51.774;7.220;2023-02-17T04:56:11;10.80;99.90
23411;DHT22;11878;51.774;7.220;2023-02-17T04:59:13;11.40;99.90
23411;DHT22;11878;51.774;7.220;2023-02-17T05:02:15;10.20;99.90
23411;DHT22;11878;51.774;7.220;2023-02-17T05:05:18;9.30;99.90
23411;DHT22;11878;51.774;7.220;2023-02-17T05:08:21;10.10;99.90
23411;DHT22;11878;51.774;7.220;2023-02-17T05:11:23;11.60;99.90
23411;DHT22;11878;51.774;7.220;2023-02-17T05:14:29;11.00;99.90
23411;DHT22;11878;51.774;7.220;2023-02-17T05:17:32;11.60;99.90
23411;DHT22;11878;51.774;7.220;2023-02-17T05:20:34;10.80;99.90
23411;DHT22;11878;51.774;7.220;2023-02-17T05:23:36;10.30;99.90
23411;DHT22;11878;51.774;7.220;2023-02-17T05:26:45;10.80;99.90
23411;DHT22;11878;51.774;7.220;2023-02-17T05:29:47;10.30;99.90
23411;DHT22;11878;51.774;7.220;2023-02-17T05:32:50;11.70;99.90
23411;DHT22;11878;51.774;7.220;2023-02-17T05:35:52;10.30;99.90
23411;DHT22;11878;51.774;7.220;2023-02-17T05:38:53;10.30;99.90
23411;DHT22;11878;51.774;7.220;2023-02-17T05:41:56;11.60;99.90
23411;DHT22;11878;51.774;7.220;2023-02-17T05:45:01;10.70;99.90
23411;DHT22;11878;51.774;7.220;2023-02-17T05:48:03;11.30;99.90
23411;DHT22;11878;51.774;7.220;2023-02-17T05:51:05;10.10;99.90
23411;DHT22;11878;51.774;7.220;2023-02-17T05:54:06;10.20;99.90
23411;DHT22;11878;51.774;7.220;2023-02-17T05:57:09;10.30;99.90
23411;DHT22;11878;51.774;7.220;2023-02-17T06:00:17;11.80;99.90
23411;DHT22;11878;51.774;7.220;2023-02-17T06:03:19;10.60;99.90
23411;DHT22;11878;51.774;7.220;2023-02-17T06:06:22;11.40;99.90
23411;DHT22;11878;51.774;7.220;2023-02-17T06:09:24;11.00;99.90
23411;DHT22;11878;51.774;7.220;2023-02-17T06:12:26;10.90;99.90
23411;DHT22;11878;51.774;7.220;2023-02-17T06:15:28;10.80;99.90
23411;DHT22;11878;51.774;7.220;2023-02-17T06:18:31;10.40;99.90
23411;DHT22;11878;51.774;7.220;2023-02-17T06:21:33;11.60;99.90
23411;DHT22;11878;51.774;7.220;2023-02-17T06:24:35;11.30;99.90
23411;DHT22;11878;51.774;7.220;2023-02-17T06:27:37;11.10;99.90
23411;DHT22;11878;51.774;7.220;2023-02-17T06:30:39;10.60;99.90
23411;DHT22;11878;51.774;7.220;2023-02-17T06:33:41;10.30;99.90
23411;DHT22;11878;51.774;7.220;2023-02-17T06:36:46;10.30;99.90
23411;DHT22;11878;51.774;7.220;2023-02-17T06:39:48;11.50;99.90
23411;DHT22;11878;51.774;7.220;2023-02-17T06:42:50;10.80;99.90
23411;DHT22;11878;51.774;7.220;2023-02-17T06:45:52;10.20;99.90
23411;DHT22;11878;51.774;7.220;2023-02-17T06:48:54;10.90;99.90
23411;DHT22;11878;51.774;7.220;2023-02-17T06:51:56;11.20;99.90
23411;DHT22;11878;51.774;7.220;2023-02-17T06:54:58;10.10;99.90
23411;DHT22;11878;51.774;7.220;2023-02-17T06:58:00;10.10;99.90
23411;DHT22;11878;51.774;7.220;2023-02-17T07:01:03;11.40;99.90
23411;DHT22;11878;51.774;7.220;2023-02-17T07:04:05;10.00;99.90
23411;DHT22;11878;51.774;7.220;2023-02-17T07:07:08;10.00;99.90
23411;DHT22;11878;51.774;7.220;2023-02-17T07:10:11;10.00;99.90
23411;DHT22;11878;51.774;7.220;2023-02-17T07:13:13;10.00;99.90
23411;DHT22;11878;51.774;7.220;2023-02-17T07:16:15;10.10;99.90
23411;DHT22;11878;51.774;7.220;2023-02-17T07:19:17;10.00;99.90
23411;DHT22;11878;51.774;7.220;2023-02-17T07:22:19;10.80;99.90
23411;DHT22;11878;51.774;7.220;2023-02-17T07:25:22;11.20;99.90
23411;DHT22;11878;51.774;7.220;2023-02-17T07:28:24;10.10;99.90
23411;DHT22;11878;51.774;7.220;2023-02-17T07:31:26;10.10;99.90
23411;DHT22;11878;51.774;7.220;2023-02-17T07:34:31;10.10;99.90
23411;DHT22;11878;51.774;7.220;2023-02-17T07:37:33;11.00;99.90
23411;DHT22;11878;51.774;7.220;2023-02-17T07:40:38;10.20;99.90
23411;DHT22;11878;51.774;7.220;2023-02-17T07:43:40;10.30;99.90
23411;DHT22;11878;51.774;7.220;2023-02-17T07:46:43;10.20;99.90
23411;DHT22;11878;51.774;7.220;2023-02-17T07:49:44;11.40;99.90
23411;DHT22;11878;51.774;7.220;2023-02-17T07:52:46;10.40;99.90
23411;DHT22;11878;51.774;7.220;2023-02-17T07:55:48;11.10;99.90
23411;DHT22;11878;51.774;7.220;2023-02-17T07:58:50;11.70;99.90
23411;DHT22;11878;51.774;7.220;2023-02-17T08:01:52;11.60;99.90
23411;DHT22;11878;51.774;7.220;2023-02-17T08:04:54;11.10;99.90
23411;DHT22;11878;51.774;7.220;2023-02-17T08:07:56;10.50;99.90
23411;DHT22;11878;51.774;7.220;2023-02-17T08:11:16;10.50;99.90
23411;DHT22;11878;51.774;7.220;2023-02-17T08:14:37;10.40;99.90
23411;DHT22;11878;51.774;7.220;2023-02-17T08:17:39;11.90;99.90
23411;DHT22;11878;51.774;7.220;2023-02-17T08:20:41;10.50;99.90
23411;DHT22;11878;51.774;7.220;2023-02-17T08:23:43;11.80;99.90
23411;DHT22;11878;51.774;7.220;2023-02-17T08:26:47;10.70;99.90
23411;DHT22;11878;51.774;7.220;2023-02-17T08:29:49;12.00;99.90
23411;DHT22;11878;51.774;7.220;2023-02-17T08:32:51;10.60;99.90
23411;DHT22;11878;51.774;7.220;2023-02-17T08:35:53;10.60;99.90
23411;DHT22;11878;51.774;7.220;2023-02-17T08:38:57;10.60;99.90
23411;DHT22;11878;51.774;7.220;2023-02-17T08:42:00;12.50;99.90
23411;DHT22;11878;51.774;7.220;2023-02-17T08:45:03;10.70;99.90
23411;DHT22;11878;51.774;7.220;2023-02-17T08:48:05;10.70;99.90
23411;DHT22;11878;51.774;7.220;2023-02-17T08:51:11;10.70;99.90
23411;DHT22;11878;51.774;7.220;2023-02-17T08:54:14;10.80;99.90
23411;DHT22;11878;51.774;7.220;2023-02-17T08:57:16;10.90;99.90
23411;DHT22;11878;51.774;7.220;2023-02-17T09:00:19;10.80;99.90
23411;DHT22;11878;51.774;7.220;2023-02-17T09:03:22;10.90;99.90
23411;DHT22;11878;51.774;7.220;2023-02-17T09:06:31;11.00;99.90
23411;DHT22;11878;51.774;7.220;2023-02-17T09:09:33;11.00;99.90
23411;DHT22;11878;51.774;7.220;2023-02-17T09:12:35;11.10;99.90
23411;DHT22;11878;51.774;7.220;2023-02-17T09:15:37;11.00;99.90
23411;DHT22;11878;51.774;7.220;2023-02-17T09:18:39;11.00;99.90
23411;DHT22;11878;51.774;7.220;2023-02-17T09:21:41;11.20;99.90
23411;DHT22;11878;51.774;7.220;2023-02-17T09:24:43;11.20;99.90
23411;DHT22;11878;51.774;7.220;2023-02-17T09:27:46;11.20;99.90
23411;DHT22;11878;51.774;7.220;2023-02-17T09:30:49;11.80;99.90
23411;DHT22;11878;51.774;7.220;2023-02-17T09:33:51;12.40;99.90
23411;DHT22;11878;51.774;7.220;2023-02-17T09:36:53;11.30;99.90
23411;DHT22;11878;51.774;7.220;2023-02-17T09:39:55;11.30;99.90
23411;DHT22;11878;51.774;7.220;2023-02-17T09:42:57;11.40;99.90
23411;DHT22;11878;51.774;7.220;2023-02-17T09:46:06;11.40;99.90
23411;DHT22;11878;51.774;7.220;2023-02-17T09:49:14;11.50;99.90
23411;DHT22;11878;51.774;7.220;2023-02-17T09:52:23;11.50;99.90
23411;DHT22;11878;51.774;7.220;2023-02-17T09:58:40;11.50;99.90
23411;DHT22;11878;51.774;7.220;2023-02-17T10:01:45;11.60;99.90
23411;DHT22;11878;51.774;7.220;2023-02-17T10:04:49;11.60;99.90
23411;DHT22;11878;51.774;7.220;2023-02-17T10:08:04;11.60;99.90
23411;DHT22;11878;51.774;7.220;2023-02-17T10:14:56;11.60;99.90
23411;DHT22;11878;51.774;7.220;2023-02-17T10:21:34;11.60;99.90
23411;DHT22;11878;51.774;7.220;2023-02-17T10:24:37;11.70;99.90
23411;DHT22;11878;51.774;7.220;2023-02-17T10:27:50;11.70;99.90
23411;DHT22;11878;51.774;7.220;2023-02-17T10:31:03;11.90;99.90
23411;DHT22;11878;51.774;7.220;2023-02-17T10:37:57;11.90;99.90
23411;DHT22;11878;51.774;7.220;2023-02-17T10:41:04;12.00;99.90
23411;DHT22;11878;51.774;7.220;2023-02-17T10:44:20;12.00;99.90
23411;DHT22;11878;51.774;7.220;2023-02-17T10:47:23;12.00;99.90
23411;DHT22;11878;51.774;7.220;2023-02-17T10:50:25;12.10;99.90
23411;DHT22;11878;51.774;7.220;2023-02-17T10:53:38;12.20;99.90
23411;DHT22;11878;51.774;7.220;2023-02-17T10:56:44;12.10;99.90
23411;DHT22;11878;51.774;7.220;2023-02-17T10:59:48;12.20;99.90
23411;DHT22;11878;51.774;7.220;2023-02-17T11:02:50;12.30;99.90
23411;DHT22;11878;51.774;7.220;2023-02-17T11:05:55;13.70;99.90
23411;DHT22;11878;51.774;7.220;2023-02-17T11:09:00;12.10;99.90
23411;DHT22;11878;51.774;7.220;2023-02-17T11:12:12;12.60;99.90
23411;DHT22;11878;51.774;7.220;2023-02-17T11:15:33;12.60;99.90
23411;DHT22;11878;51.774;7.220;2023-02-17T11:18:40;12.70;99.90
23411;DHT22;11878;51.774;7.220;2023-02-17T11:21:47;12.90;99.90
23411;DHT22;11878;51.774;7.220;2023-02-17T11:25:21;12.90;99.90
23411;DHT22;11878;51.774;7.220;2023-02-17T11:28:24;12.80;99.90
23411;DHT22;11878;51.774;7.220;2023-02-17T11:31:29;12.70;99.90
23411;DHT22;11878;51.774;7.220;2023-02-17T11:34:33;12.70;99.90
23411;DHT22;11878;51.774;7.220;2023-02-17T11:37:41;12.70;99.90
23411;DHT22;11878;51.774;7.220;2023-02-17T11:40:58;12.70;99.90
23411;DHT22;11878;51.774;7.220;2023-02-17T11:44:00;12.70;99.90
23411;DHT22;11878;51.774;7.220;2023-02-17T11:53:46;13.00;99.90
23411;DHT22;11878;51.774;7.220;2023-02-17T11:57:32;13.00;99.90
23411;DHT22;11878;51.774;7.220;2023-02-17T12:07:34;13.10;99.90
23411;DHT22;11878;51.774;7.220;2023-02-17T12:10:59;13.10;99.90
23411;DHT22;11878;51.774;7.220;2023-02-17T12:14:38;12.90;99.90
23411;DHT22;11878;51.774;7.220;2023-02-17T12:35:18;13.20;99.90
23411;DHT22;11878;51.774;7.220;2023-02-17T12:38:34;12.70;99.90
23411;DHT22;11878;51.774;7.220;2023-02-17T12:41:46;12.30;99.90
23411;DHT22;11878;51.774;7.220;2023-02-17T12:48:49;12.70;99.90
23411;DHT22;11878;51.774;7.220;2023-02-17T12:52:07;12.60;99.90
23411;DHT22;11878;51.774;7.220;2023-02-17T12:55:19;12.60;99.90
23411;DHT22;11878;51.774;7.220;2023-02-17T12:58:27;12.60;99.90
23411;DHT22;11878;51.774;7.220;2023-02-17T13:01:31;12.60;99.90
23411;DHT22;11878;51.774;7.220;2023-02-17T13:04:34;12.70;99.90
23411;DHT22;11878;51.774;7.220;2023-02-17T13:08:04;12.60;99.90
23411;DHT22;11878;51.774;7.220;2023-02-17T13:11:09;12.60;99.90
23411;DHT22;11878;51.774;7.220;2023-02-17T13:14:38;12.60;99.90
23411;DHT22;11878;51.774;7.220;2023-02-17T13:17:58;12.60;99.90
23411;DHT22;11878;51.774;7.220;2023-02-17T13:24:36;12.60;99.90
23411;DHT22;11878;51.774;7.220;2023-02-17T13:27:39;12.60;99.90
23411;DHT22;11878;51.774;7.220;2023-02-17T13:30:45;12.80;99.90
23411;DHT22;11878;51.774;7.220;2023-02-17T13:33:51;12.70;99.90
23411;DHT22;11878;51.774;7.220;2023-02-17T13:36:54;14.00;99.90
23411;DHT22;11878;51.774;7.220;2023-02-17T13:39:56;13.50;99.90
23411;DHT22;11878;51.774;7.220;2023-02-17T13:43:12;14.20;99.90
23411;DHT22;11878;51.774;7.220;2023-02-17T13:46:20;12.60;99.90
23411;DHT22;11878;51.774;7.220;2023-02-17T13:49:26;13.60;99.90
23411;DHT22;11878;51.774;7.220;2023-02-17T13:52:30;12.50;99.90
23411;DHT22;11878;51.774;7.220;2023-02-17T13:55:32;12.90;99.90
23411;DHT22;11878;51.774;7.220;2023-02-17T13:58:36;11.80;99.90
23411;DHT22;11878;51.774;7.220;2023-02-17T14:01:41;11.70;99.90
23411;DHT22;11878;51.774;7.220;2023-02-17T14:04:43;11.60;99.90
23411;DHT22;11878;51.774;7.220;2023-02-17T14:07:46;11.60;99.90
23411;DHT22;11878;51.774;7.220;2023-02-17T14:10:48;11.60;99.90
23411;DHT22;11878;51.774;7.220;2023-02-17T14:13:52;11.60;99.90
23411;DHT22;11878;51.774;7.220;2023-02-17T14:17:11;12.50;99.90
23411;DHT22;11878;51.774;7.220;2023-02-17T14:23:48;11.60;99.90
23411;DHT22;11878;51.774;7.220;2023-02-17T14:27:00;11.50;99.90
23411;DHT22;11878;51.774;7.220;2023-02-17T14:30:03;11.40;99.90
23411;DHT22;11878;51.774;7.220;2023-02-17T14:36:34;11.40;99.90
23411;DHT22;11878;51.774;7.220;2023-02-17T14:39:37;11.40;99.90
23411;DHT22;11878;51.774;7.220;2023-02-17T14:42:39;11.40;99.90
23411;DHT22;11878;51.774;7.220;2023-02-17T14:45:41;11.40;99.90
23411;DHT22;11878;51.774;7.220;2023-02-17T14:48:42;11.40;99.90
23411;DHT22;11878;51.774;7.220;2023-02-17T14:51:44;11.40;99.90
23411;DHT22;11878;51.774;7.220;2023-02-17T14:54:46;11.40;99.90
23411;DHT22;11878;51.774;7.220;2023-02-17T14:57:48;11.40;99.90
23411;DHT22;11878;51.774;7.220;2023-02-17T15:00:50;11.40;99.90
23411;DHT22;11878;51.774;7.220;2023-02-17T15:03:53;11.50;99.90
23411;DHT22;11878;51.774;7.220;2023-02-17T15:06:54;11.50;99.90
23411;DHT22;11878;51.774;7.220;2023-02-17T15:09:56;11.60;99.90
23411;DHT22;11878;51.774;7.220;2023-02-17T15:12:58;11.60;99.90
23411;DHT22;11878;51.774;7.220;2023-02-17T15:16:00;11.60;99.90
23411;DHT22;11878;51.774;7.220;2023-02-17T15:19:02;11.60;99.90
23411;DHT22;11878;51.774;7.220;2023-02-17T15:22:05;11.60;99.90
23411;DHT22;11878;51.774;7.220;2023-02-17T15:25:16;11.40;99.90
23411;DHT22;11878;51.774;7.220;2023-02-17T15:28:19;11.50;99.90
23411;DHT22;11878;51.774;7.220;2023-02-17T15:31:21;11.50;99.90
23411;DHT22;11878;51.774;7.220;2023-02-17T15:34:33;11.70;99.90
23411;DHT22;11878;51.774;7.220;2023-02-17T15:37:35;11.50;99.90
23411;DHT22;11878;51.774;7.220;2023-02-17T15:40:37;12.50;99.90
23411;DHT22;11878;51.774;7.220;2023-02-17T15:43:40;11.50;99.90
23411;DHT22;11878;51.774;7.220;2023-02-17T15:46:42;11.60;99.90
23411;DHT22;11878;51.774;7.220;2023-02-17T15:49:47;12.70;99.90
23411;DHT22;11878;51.774;7.220;2023-02-17T15:52:49;11.50;99.90
23411;DHT22;11878;51.774;7.220;2023-02-17T15:55:51;11.50;99.90
23411;DHT22;11878;51.774;7.220;2023-02-17T15:58:54;12.10;99.90
23411;DHT22;11878;51.774;7.220;2023-02-17T16:01:56;11.50;99.90
23411;DHT22;11878;51.774;7.220;2023-02-17T16:05:01;11.60;99.90
23411;DHT22;11878;51.774;7.220;2023-02-17T16:08:03;11.50;99.90
23411;DHT22;11878;51.774;7.220;2023-02-17T16:11:11;11.50;99.90
23411;DHT22;11878;51.774;7.220;2023-02-17T16:14:32;11.50;99.90
23411;DHT22;11878;51.774;7.220;2023-02-17T16:17:34;11.50;99.90
23411;DHT22;11878;51.774;7.220;2023-02-17T16:20:36;11.40;99.90
23411;DHT22;11878;51.774;7.220;2023-02-17T16:23:39;11.40;99.90
23411;DHT22;11878;51.774;7.220;2023-02-17T16:26:40;11.40;99.90
23411;DHT22;11878;51.774;7.220;2023-02-17T16:29:43;11.50;99.90
23411;DHT22;11878;51.774;7.220;2023-02-17T16:32:45;12.90;99.90
23411;DHT22;11878;51.774;7.220;2023-02-17T16:35:49;12.40;99.90
23411;DHT22;11878;51.774;7.220;2023-02-17T16:38:51;11.50;99.90
23411;DHT22;11878;51.774;7.220;2023-02-17T16:41:53;12.10;99.90
23411;DHT22;11878;51.774;7.220;2023-02-17T16:44:54;11.60;99.90
23411;DHT22;11878;51.774;7.220;2023-02-17T16:47:58;12.90;99.90
23411;DHT22;11878;51.774;7.220;2023-02-17T16:51:01;12.60;99.90
23411;DHT22;11878;51.774;7.220;2023-02-17T16:54:03;11.60;99.90
23411;DHT22;11878;51.774;7.220;2023-02-17T16:57:04;11.60;99.90
23411;DHT22;11878;51.774;7.220;2023-02-17T17:00:07;11.60;99.90
23411;DHT22;11878;51.774;7.220;2023-02-17T17:03:10;11.40;99.90
23411;DHT22;11878;51.774;7.220;2023-02-17T17:06:22;11.60;99.90
23411;DHT22;11878;51.774;7.220;2023-02-17T17:09:24;11.60;99.90
23411;DHT22;11878;51.774;7.220;2023-02-17T17:12:26;11.60;99.90
23411;DHT22;11878;51.774;7.220;2023-02-17T17:15:29;11.60;99.90
23411;DHT22;11878;51.774;7.220;2023-02-17T17:18:30;11.60;99.90
23411;DHT22;11878;51.774;7.220;2023-02-17T17:21:32;11.60;99.90
23411;DHT22;11878;51.774;7.220;2023-02-17T17:24:34;11.50;99.90
23411;DHT22;11878;51.774;7.220;2023-02-17T17:27:36;11.60;99.90
23411;DHT22;11878;51.774;7.220;2023-02-17T17:30:38;12.70;99.90
23411;DHT22;11878;51.774;7.220;2023-02-17T17:33:41;11.50;99.90
23411;DHT22;11878;51.774;7.220;2023-02-17T17:36:44;11.60;99.90
23411;DHT22;11878;51.774;7.220;2023-02-17T17:39:47;11.60;99.90
23411;DHT22;11878;51.774;7.220;2023-02-17T17:42:49;11.60;99.90
23411;DHT22;11878;51.774;7.220;2023-02-17T17:45:51;12.20;99.90
23411;DHT22;11878;51.774;7.220;2023-02-17T17:48:54;12.30;99.90
23411;DHT22;11878;51.774;7.220;2023-02-17T17:51:57;11.60;99.90
23411;DHT22;11878;51.774;7.220;2023-02-17T17:54:58;11.50;99.90
23411;DHT22;11878;51.774;7.220;2023-02-17T17:58:00;11.60;99.90
23411;DHT22;11878;51.774;7.220;2023-02-17T18:01:02;11.60;99.90
23411;DHT22;11878;51.774;7.220;2023-02-17T18:04:05;11.60;99.90
23411;DHT22;11878;51.774;7.220;2023-02-17T18:07:08;11.60;99.90
23411;DHT22;11878;51.774;7.220;2023-02-17T18:10:11;11.60;99.90
23411;DHT22;11878;51.774;7.220;2023-02-17T18:13:13;11.70;99.90
23411;DHT22;11878;51.774;7.220;2023-02-17T18:16:18;11.70;99.90
23411;DHT22;11878;51.774;7.220;2023-02-17T18:19:21;12.90;99.90
23411;DHT22;11878;51.774;7.220;2023-02-17T18:22:24;11.60;99.90
23411;DHT22;11878;51.774;7.220;2023-02-17T18:25:26;11.60;99.90
23411;DHT22;11878;51.774;7.220;2023-02-17T18:28:28;12.40;99.90
23411;DHT22;11878;51.774;7.220;2023-02-17T18:31:30;12.90;99.90
23411;DHT22;11878;51.774;7.220;2023-02-17T18:34:32;12.30;99.90
23411;DHT22;11878;51.774;7.220;2023-02-17T18:37:34;12.20;99.90
23411;DHT22;11878;51.774;7.220;2023-02-17T18:40:38;12.60;99.90
23411;DHT22;11878;51.774;7.220;2023-02-17T18:43:40;12.60;99.90
23411;DHT22;11878;51.774;7.220;2023-02-17T18:46:42;12.40;99.90
23411;DHT22;11878;51.774;7.220;2023-02-17T18:49:44;12.80;99.90
23411;DHT22;11878;51.774;7.220;2023-02-17T18:52:46;12.30;99.90
23411;DHT22;11878;51.774;7.220;2023-02-17T18:55:48;12.80;99.90
23411;DHT22;11878;51.774;7.220;2023-02-17T18:58:51;12.00;99.90
23411;DHT22;11878;51.774;7.220;2023-02-17T19:01:54;13.00;99.90
23411;DHT22;11878;51.774;7.220;2023-02-17T19:04:56;12.40;99.90
23411;DHT22;11878;51.774;7.220;2023-02-17T19:07:57;11.80;99.90
23411;DHT22;11878;51.774;7.220;2023-02-17T19:10:59;12.10;99.90
23411;DHT22;11878;51.774;7.220;2023-02-17T19:14:02;11.40;99.90
23411;DHT22;11878;51.774;7.220;2023-02-17T19:17:04;11.90;99.90
23411;DHT22;11878;51.774;7.220;2023-02-17T19:20:06;11.80;99.90
23411;DHT22;11878;51.774;7.220;2023-02-17T19:23:12;11.40;99.90
23411;DHT22;11878;51.774;7.220;2023-02-17T19:26:15;11.40;99.90
23411;DHT22;11878;51.774;7.220;2023-02-17T19:29:18;12.70;99.90
23411;DHT22;11878;51.774;7.220;2023-02-17T19:32:21;12.70;99.90
23411;DHT22;11878;51.774;7.220;2023-02-17T19:35:22;11.30;99.90
23411;DHT22;11878;51.774;7.220;2023-02-17T19:38:24;11.80;99.90
23411;DHT22;11878;51.774;7.220;2023-02-17T19:41:26;11.20;99.90
23411;DHT22;11878;51.774;7.220;2023-02-17T19:44:29;11.00;99.90
23411;DHT22;11878;51.774;7.220;2023-02-17T19:47:31;11.60;99.90
23411;DHT22;11878;51.774;7.220;2023-02-17T19:50:36;11.00;99.90
23411;DHT22;11878;51.774;7.220;2023-02-17T19:53:39;11.70;99.90
23411;DHT22;11878;51.774;7.220;2023-02-17T19:56:41;11.50;99.90
23411;DHT22;11878;51.774;7.220;2023-02-17T19:59:43;11.00;99.90
23411;DHT22;11878;51.774;7.220;2023-02-17T20:02:45;11.50;99.90
23411;DHT22;11878;51.774;7.220;2023-02-17T20:05:47;10.90;99.90
23411;DHT22;11878;51.774;7.220;2023-02-17T20:08:55;11.40;99.90
23411;DHT22;11878;51.774;7.220;2023-02-17T20:11:58;10.90;99.90
23411;DHT22;11878;51.774;7.220;2023-02-17T20:15:00;11.20;99.90
23411;DHT22;11878;51.774;7.220;2023-02-17T20:18:02;11.30;99.90
23411;DHT22;11878;51.774;7.220;2023-02-17T20:21:06;10.80;99.90
23411;DHT22;11878;51.774;7.220;2023-02-17T20:24:08;10.90;99.90
23411;DHT22;11878;51.774;7.220;2023-02-17T20:27:10;10.80;99.90
23411;DHT22;11878;51.774;7.220;2023-02-17T20:30:12;12.50;99.90
23411;DHT22;11878;51.774;7.220;2023-02-17T20:33:14;10.70;99.90
23411;DHT22;11878;51.774;7.220;2023-02-17T20:36:16;10.90;99.90
23411;DHT22;11878;51.774;7.220;2023-02-17T20:39:18;10.70;99.90
23411;DHT22;11878;51.774;7.220;2023-02-17T20:42:20;10.70;99.90
23411;DHT22;11878;51.774;7.220;2023-02-17T20:45:22;10.70;99.90
23411;DHT22;11878;51.774;7.220;2023-02-17T20:48:24;11.60;99.90
23411;DHT22;11878;51.774;7.220;2023-02-17T20:51:29;10.60;99.90
23411;DHT22;11878;51.774;7.220;2023-02-17T20:54:31;10.60;99.90
23411;DHT22;11878;51.774;7.220;2023-02-17T20:57:32;11.30;99.90
23411;DHT22;11878;51.774;7.220;2023-02-17T21:00:34;10.60;99.90
23411;DHT22;11878;51.774;7.220;2023-02-17T21:03:36;10.60;99.90
23411;DHT22;11878;51.774;7.220;2023-02-17T21:06:39;10.60;99.90
23411;DHT22;11878;51.774;7.220;2023-02-17T21:09:41;10.60;99.90
23411;DHT22;11878;51.774;7.220;2023-02-17T21:12:43;11.30;99.90
23411;DHT22;11878;51.774;7.220;2023-02-17T21:15:47;11.90;99.90
23411;DHT22;11878;51.774;7.220;2023-02-17T21:18:49;10.50;99.90
23411;DHT22;11878;51.774;7.220;2023-02-17T21:21:52;10.50;99.90
23411;DHT22;11878;51.774;7.220;2023-02-17T21:24:54;10.50;99.90
23411;DHT22;11878;51.774;7.220;2023-02-17T21:27:56;10.50;99.90
23411;DHT22;11878;51.774;7.220;2023-02-17T21:30:58;11.40;99.90
23411;DHT22;11878;51.774;7.220;2023-02-17T21:34:00;10.50;99.90
23411;DHT22;11878;51.774;7.220;2023-02-17T21:37:02;10.50;99.90
23411;DHT22;11878;51.774;7.220;2023-02-17T21:40:08;10.50;99.90
23411;DHT22;11878;51.774;7.220;2023-02-17T21:43:11;10.50;99.90
23411;DHT22;11878;51.774;7.220;2023-02-17T21:46:32;10.50;99.90
23411;DHT22;11878;51.774;7.220;2023-02-17T21:49:34;10.50;99.90
23411;DHT22;11878;51.774;7.220;2023-02-17T21:52:36;10.80;99.90
23411;DHT22;11878;51.774;7.220;2023-02-17T21:55:38;10.50;99.90
23411;DHT22;11878;51.774;7.220;2023-02-17T21:58:53;11.60;99.90
23411;DHT22;11878;51.774;7.220;2023-02-17T22:01:55;11.80;99.90
23411;DHT22;11878;51.774;7.220;2023-02-17T22:04:57;11.10;99.90
23411;DHT22;11878;51.774;7.220;2023-02-17T22:07:59;10.30;99.90
23411;DHT22;11878;51.774;7.220;2023-02-17T22:11:01;10.30;99.90
23411;DHT22;11878;51.774;7.220;2023-02-17T22:14:07;11.40;99.90
23411;DHT22;11878;51.774;7.220;2023-02-17T22:17:13;10.20;99.90
23411;DHT22;11878;51.774;7.220;2023-02-17T22:20:16;10.30;99.90